Terminal Aerodrome Forecast
Issued by NWS Cleveland, OH

Home | Current Version | Previous Version | Graphics & Text | Print | Product List | Glossary On
Versions: 1 2 3 4 5 6 7 8 9 10 11 12 13 14 15 16 17
000
FTUS41 KCLE 161100
TAFERI
TAF
KERI 161140Z 1612/1712 13007KT P6SM OVC200
     FM161400 15012G20KT P6SM BKN120
     FM162000 18010G18KT 6SM -SHRA BKN040 OVC100
     FM162300 17010KT P6SM BKN025=

USA.gov is the U.S. government's official web portal to all federal, state and local government web resources and services.